Duffel, Belgium
Current Conditions -  °F | °C
As of 3:20 AM on Saturday 25 Oct 2014 (Local Time) from EBAW Reporting Station
Overcast Overcast  
Wind Chill: 54°   Ceiling: 500
Heat Index: 54°   Visibility: 4mi
Dew Point: 50°   Wind: 10mph
Humidity: 88%   Direction: 220°SW
Pressure: 30"   Gusts: NA
Location:  51.1°N, 4.51°E
Report Text: EBAW 250120Z AUTO 22009KT 6000 OVC005/// 12/10 Q1016
Loading
Personal Weather Stations






























Interactive Weather Map
Tropical Storm Tracking
New forecast layout! Learn more

10-Day Weather Forecast

Advertisements
Track Severe Weather on mobile